sensor_id;sensor_type;location;lat;lon;timestamp;temperature;humidity
23813;DHT22;12087;45.190;5.688;2024-02-23T00:01:10;10.00;99.90
23813;DHT22;12087;45.190;5.688;2024-02-23T00:06:33;9.90;99.90
23813;DHT22;12087;45.190;5.688;2024-02-23T00:11:55;9.80;99.90
23813;DHT22;12087;45.190;5.688;2024-02-23T00:17:19;9.80;99.90
23813;DHT22;12087;45.190;5.688;2024-02-23T00:22:42;9.80;99.90
23813;DHT22;12087;45.190;5.688;2024-02-23T00:28:05;9.70;99.90
23813;DHT22;12087;45.190;5.688;2024-02-23T00:33:29;9.60;99.90
23813;DHT22;12087;45.190;5.688;2024-02-23T00:38:52;9.60;99.90
23813;DHT22;12087;45.190;5.688;2024-02-23T00:44:14;9.60;99.90
23813;DHT22;12087;45.190;5.688;2024-02-23T00:49:37;9.60;99.90
23813;DHT22;12087;45.190;5.688;2024-02-23T00:55:00;9.50;99.90
23813;DHT22;12087;45.190;5.688;2024-02-23T01:00:22;9.50;99.90
23813;DHT22;12087;45.190;5.688;2024-02-23T01:05:46;9.40;99.90
23813;DHT22;12087;45.190;5.688;2024-02-23T01:11:08;9.30;99.90
23813;DHT22;12087;45.190;5.688;2024-02-23T01:16:30;9.20;99.90
23813;DHT22;12087;45.190;5.688;2024-02-23T01:21:54;9.20;99.90
23813;DHT22;12087;45.190;5.688;2024-02-23T01:27:20;9.20;99.90
23813;DHT22;12087;45.190;5.688;2024-02-23T01:32:42;9.10;99.90
23813;DHT22;12087;45.190;5.688;2024-02-23T01:38:06;9.00;99.90
23813;DHT22;12087;45.190;5.688;2024-02-23T01:43:28;9.00;99.90
23813;DHT22;12087;45.190;5.688;2024-02-23T01:48:50;8.90;99.90
23813;DHT22;12087;45.190;5.688;2024-02-23T01:54:14;8.90;99.90
23813;DHT22;12087;45.190;5.688;2024-02-23T01:59:38;8.80;99.90
23813;DHT22;12087;45.190;5.688;2024-02-23T02:05:00;8.70;99.90
23813;DHT22;12087;45.190;5.688;2024-02-23T02:10:24;8.60;99.90
23813;DHT22;12087;45.190;5.688;2024-02-23T02:15:46;8.70;99.90
23813;DHT22;12087;45.190;5.688;2024-02-23T02:21:08;8.70;99.90
23813;DHT22;12087;45.190;5.688;2024-02-23T02:26:32;8.60;99.90
23813;DHT22;12087;45.190;5.688;2024-02-23T02:31:54;8.60;99.90
23813;DHT22;12087;45.190;5.688;2024-02-23T02:37:17;8.60;99.90
23813;DHT22;12087;45.190;5.688;2024-02-23T02:42:40;8.60;99.90
23813;DHT22;12087;45.190;5.688;2024-02-23T02:48:03;8.50;99.90
23813;DHT22;12087;45.190;5.688;2024-02-23T02:53:25;8.40;99.90
23813;DHT22;12087;45.190;5.688;2024-02-23T02:58:49;8.30;99.90
23813;DHT22;12087;45.190;5.688;2024-02-23T03:04:11;8.40;99.90
23813;DHT22;12087;45.190;5.688;2024-02-23T03:09:33;8.40;99.90
23813;DHT22;12087;45.190;5.688;2024-02-23T03:14:57;8.40;99.90
23813;DHT22;12087;45.190;5.688;2024-02-23T03:20:19;8.40;99.90
23813;DHT22;12087;45.190;5.688;2024-02-23T03:25:41;8.40;99.90
23813;DHT22;12087;45.190;5.688;2024-02-23T03:31:05;8.40;99.90
23813;DHT22;12087;45.190;5.688;2024-02-23T03:36:27;8.30;99.90
23813;DHT22;12087;45.190;5.688;2024-02-23T03:41:49;8.20;99.90
23813;DHT22;12087;45.190;5.688;2024-02-23T03:47:13;8.10;99.90
23813;DHT22;12087;45.190;5.688;2024-02-23T03:52:35;7.90;99.90
23813;DHT22;12087;45.190;5.688;2024-02-23T03:57:57;7.80;99.90
23813;DHT22;12087;45.190;5.688;2024-02-23T04:03:21;7.80;99.90
23813;DHT22;12087;45.190;5.688;2024-02-23T04:08:43;7.70;99.90
23813;DHT22;12087;45.190;5.688;2024-02-23T04:14:05;7.60;99.90
23813;DHT22;12087;45.190;5.688;2024-02-23T04:19:29;7.60;99.90
23813;DHT22;12087;45.190;5.688;2024-02-23T04:24:52;7.50;99.90
23813;DHT22;12087;45.190;5.688;2024-02-23T04:30:14;7.40;99.90
23813;DHT22;12087;45.190;5.688;2024-02-23T04:35:38;7.20;99.90
23813;DHT22;12087;45.190;5.688;2024-02-23T04:41:02;7.10;99.90
23813;DHT22;12087;45.190;5.688;2024-02-23T04:46:25;7.00;99.90
23813;DHT22;12087;45.190;5.688;2024-02-23T04:51:48;6.90;99.90
23813;DHT22;12087;45.190;5.688;2024-02-23T04:57:11;6.80;99.90
23813;DHT22;12087;45.190;5.688;2024-02-23T05:02:33;6.70;99.90
23813;DHT22;12087;45.190;5.688;2024-02-23T05:07:57;6.70;99.90
23813;DHT22;12087;45.190;5.688;2024-02-23T05:13:20;6.60;99.90
23813;DHT22;12087;45.190;5.688;2024-02-23T05:18:42;6.50;99.90
23813;DHT22;12087;45.190;5.688;2024-02-23T05:24:06;6.50;99.90
23813;DHT22;12087;45.190;5.688;2024-02-23T05:29:30;6.30;99.90
23813;DHT22;12087;45.190;5.688;2024-02-23T05:34:52;6.20;99.90
23813;DHT22;12087;45.190;5.688;2024-02-23T05:40:16;6.20;99.90
23813;DHT22;12087;45.190;5.688;2024-02-23T05:45:38;6.20;99.90
23813;DHT22;12087;45.190;5.688;2024-02-23T05:51:01;6.10;99.90
23813;DHT22;12087;45.190;5.688;2024-02-23T05:56:24;6.00;99.90
23813;DHT22;12087;45.190;5.688;2024-02-23T06:01:46;5.80;99.90
23813;DHT22;12087;45.190;5.688;2024-02-23T06:07:09;5.80;99.90
23813;DHT22;12087;45.190;5.688;2024-02-23T06:12:32;5.70;99.90
23813;DHT22;12087;45.190;5.688;2024-02-23T06:17:54;5.70;99.90
23813;DHT22;12087;45.190;5.688;2024-02-23T06:23:17;5.60;99.90
23813;DHT22;12087;45.190;5.688;2024-02-23T06:28:40;5.60;99.90
23813;DHT22;12087;45.190;5.688;2024-02-23T06:34:04;5.60;99.90
23813;DHT22;12087;45.190;5.688;2024-02-23T06:39:26;5.50;99.90
23813;DHT22;12087;45.190;5.688;2024-02-23T06:44:49;5.50;99.90
23813;DHT22;12087;45.190;5.688;2024-02-23T06:50:12;5.50;99.90
23813;DHT22;12087;45.190;5.688;2024-02-23T06:55:34;5.40;99.90
23813;DHT22;12087;45.190;5.688;2024-02-23T07:00:58;5.30;99.90
23813;DHT22;12087;45.190;5.688;2024-02-23T07:06:20;5.30;99.90
23813;DHT22;12087;45.190;5.688;2024-02-23T07:11:43;5.30;99.90
23813;DHT22;12087;45.190;5.688;2024-02-23T07:17:07;5.30;99.90
23813;DHT22;12087;45.190;5.688;2024-02-23T07:22:29;5.40;99.90
23813;DHT22;12087;45.190;5.688;2024-02-23T07:27:52;5.40;99.90
23813;DHT22;12087;45.190;5.688;2024-02-23T07:33:15;5.50;99.90
23813;DHT22;12087;45.190;5.688;2024-02-23T07:38:37;5.60;99.90
23813;DHT22;12087;45.190;5.688;2024-02-23T07:43:59;5.80;99.90
23813;DHT22;12087;45.190;5.688;2024-02-23T07:49:23;5.90;99.90
23813;DHT22;12087;45.190;5.688;2024-02-23T07:54:45;6.20;99.90
23813;DHT22;12087;45.190;5.688;2024-02-23T08:00:08;6.40;99.90
23813;DHT22;12087;45.190;5.688;2024-02-23T08:05:32;6.50;99.90
23813;DHT22;12087;45.190;5.688;2024-02-23T08:10:54;6.60;99.90
23813;DHT22;12087;45.190;5.688;2024-02-23T08:16:16;6.80;99.90
23813;DHT22;12087;45.190;5.688;2024-02-23T08:21:40;7.00;99.90
23813;DHT22;12087;45.190;5.688;2024-02-23T08:27:03;7.10;99.90
23813;DHT22;12087;45.190;5.688;2024-02-23T08:32:25;7.20;99.90
23813;DHT22;12087;45.190;5.688;2024-02-23T08:37:48;7.30;99.90
23813;DHT22;12087;45.190;5.688;2024-02-23T08:43:11;7.30;99.90
23813;DHT22;12087;45.190;5.688;2024-02-23T08:48:33;7.50;99.90
23813;DHT22;12087;45.190;5.688;2024-02-23T08:53:59;7.60;99.90
23813;DHT22;12087;45.190;5.688;2024-02-23T08:59:25;7.70;99.90
23813;DHT22;12087;45.190;5.688;2024-02-23T09:04:47;7.90;99.90
23813;DHT22;12087;45.190;5.688;2024-02-23T09:10:11;8.00;99.90
23813;DHT22;12087;45.190;5.688;2024-02-23T09:15:33;8.30;99.90
23813;DHT22;12087;45.190;5.688;2024-02-23T09:20:56;8.40;99.90
23813;DHT22;12087;45.190;5.688;2024-02-23T09:26:19;8.50;99.90
23813;DHT22;12087;45.190;5.688;2024-02-23T09:31:41;8.50;99.90
23813;DHT22;12087;45.190;5.688;2024-02-23T09:37:04;8.60;99.90
23813;DHT22;12087;45.190;5.688;2024-02-23T09:42:28;8.80;99.90
23813;DHT22;12087;45.190;5.688;2024-02-23T09:47:53;8.90;99.90
23813;DHT22;12087;45.190;5.688;2024-02-23T09:53:17;9.00;99.90
23813;DHT22;12087;45.190;5.688;2024-02-23T09:58:42;9.20;99.90
23813;DHT22;12087;45.190;5.688;2024-02-23T10:04:07;9.30;99.90
23813;DHT22;12087;45.190;5.688;2024-02-23T10:09:29;9.40;99.90
23813;DHT22;12087;45.190;5.688;2024-02-23T10:14:53;9.60;99.90
23813;DHT22;12087;45.190;5.688;2024-02-23T10:20:15;9.60;99.90
23813;DHT22;12087;45.190;5.688;2024-02-23T10:25:38;9.70;99.90
23813;DHT22;12087;45.190;5.688;2024-02-23T10:31:02;9.80;99.90
23813;DHT22;12087;45.190;5.688;2024-02-23T10:36:26;9.90;99.90
23813;DHT22;12087;45.190;5.688;2024-02-23T10:41:56;10.10;99.90
23813;DHT22;12087;45.190;5.688;2024-02-23T10:47:21;10.20;99.90
23813;DHT22;12087;45.190;5.688;2024-02-23T10:52:44;10.40;99.90
23813;DHT22;12087;45.190;5.688;2024-02-23T10:58:07;10.50;99.90
23813;DHT22;12087;45.190;5.688;2024-02-23T11:03:36;10.70;99.90
23813;DHT22;12087;45.190;5.688;2024-02-23T11:09:06;10.80;99.90
23813;DHT22;12087;45.190;5.688;2024-02-23T11:14:30;11.00;99.90
23813;DHT22;12087;45.190;5.688;2024-02-23T11:19:55;11.10;99.90
23813;DHT22;12087;45.190;5.688;2024-02-23T11:25:17;11.40;99.90
23813;DHT22;12087;45.190;5.688;2024-02-23T11:30:44;11.50;99.90
23813;DHT22;12087;45.190;5.688;2024-02-23T11:36:11;11.70;99.90
23813;DHT22;12087;45.190;5.688;2024-02-23T11:41:33;11.90;99.90
23813;DHT22;12087;45.190;5.688;2024-02-23T11:46:58;12.10;99.90
23813;DHT22;12087;45.190;5.688;2024-02-23T11:52:22;12.30;99.90
23813;DHT22;12087;45.190;5.688;2024-02-23T11:57:44;12.50;99.90
23813;DHT22;12087;45.190;5.688;2024-02-23T12:03:07;12.60;99.90
23813;DHT22;12087;45.190;5.688;2024-02-23T12:08:32;12.50;99.90
23813;DHT22;12087;45.190;5.688;2024-02-23T12:13:58;12.80;99.90
23813;DHT22;12087;45.190;5.688;2024-02-23T12:19:22;13.00;99.90
23813;DHT22;12087;45.190;5.688;2024-02-23T12:24:46;13.20;99.90
23813;DHT22;12087;45.190;5.688;2024-02-23T12:30:13;13.20;99.90
23813;DHT22;12087;45.190;5.688;2024-02-23T12:35:36;13.10;99.90
23813;DHT22;12087;45.190;5.688;2024-02-23T12:41:00;13.30;99.90
23813;DHT22;12087;45.190;5.688;2024-02-23T12:46:23;13.40;99.90
23813;DHT22;12087;45.190;5.688;2024-02-23T12:51:45;13.60;99.90
23813;DHT22;12087;45.190;5.688;2024-02-23T12:57:09;13.70;99.90
23813;DHT22;12087;45.190;5.688;2024-02-23T13:02:31;13.80;99.90
23813;DHT22;12087;45.190;5.688;2024-02-23T13:07:53;13.80;99.90
23813;DHT22;12087;45.190;5.688;2024-02-23T13:13:17;13.50;99.90
23813;DHT22;12087;45.190;5.688;2024-02-23T13:18:39;13.50;99.90
23813;DHT22;12087;45.190;5.688;2024-02-23T13:24:01;13.40;99.90
23813;DHT22;12087;45.190;5.688;2024-02-23T13:29:25;13.20;99.90
23813;DHT22;12087;45.190;5.688;2024-02-23T13:34:47;13.00;99.90
23813;DHT22;12087;45.190;5.688;2024-02-23T13:40:12;12.90;99.90
23813;DHT22;12087;45.190;5.688;2024-02-23T13:45:48;12.80;99.90
23813;DHT22;12087;45.190;5.688;2024-02-23T13:51:11;12.70;99.90
23813;DHT22;12087;45.190;5.688;2024-02-23T13:56:33;12.70;99.90
23813;DHT22;12087;45.190;5.688;2024-02-23T14:01:57;12.70;99.90
23813;DHT22;12087;45.190;5.688;2024-02-23T14:07:19;12.60;99.90
23813;DHT22;12087;45.190;5.688;2024-02-23T14:12:42;12.50;99.90
23813;DHT22;12087;45.190;5.688;2024-02-23T14:18:05;12.30;99.90
23813;DHT22;12087;45.190;5.688;2024-02-23T14:23:28;12.30;99.90
23813;DHT22;12087;45.190;5.688;2024-02-23T14:28:50;12.20;99.90
23813;DHT22;12087;45.190;5.688;2024-02-23T14:34:13;12.10;99.90
23813;DHT22;12087;45.190;5.688;2024-02-23T14:39:36;12.10;99.90
23813;DHT22;12087;45.190;5.688;2024-02-23T14:44:58;12.10;99.90
23813;DHT22;12087;45.190;5.688;2024-02-23T14:50:21;12.20;99.90
23813;DHT22;12087;45.190;5.688;2024-02-23T14:55:44;12.20;99.90
23813;DHT22;12087;45.190;5.688;2024-02-23T15:01:07;12.00;99.90
23813;DHT22;12087;45.190;5.688;2024-02-23T15:06:30;12.00;99.90
23813;DHT22;12087;45.190;5.688;2024-02-23T15:11:53;11.90;99.90
23813;DHT22;12087;45.190;5.688;2024-02-23T15:17:15;11.90;99.90
23813;DHT22;12087;45.190;5.688;2024-02-23T15:22:39;12.00;99.90
23813;DHT22;12087;45.190;5.688;2024-02-23T15:28:03;12.10;99.90
23813;DHT22;12087;45.190;5.688;2024-02-23T15:33:25;12.10;99.90
23813;DHT22;12087;45.190;5.688;2024-02-23T15:38:49;12.00;99.90
23813;DHT22;12087;45.190;5.688;2024-02-23T15:44:13;12.10;99.90
23813;DHT22;12087;45.190;5.688;2024-02-23T15:49:36;12.00;99.90
23813;DHT22;12087;45.190;5.688;2024-02-23T15:54:59;11.90;99.90
23813;DHT22;12087;45.190;5.688;2024-02-23T16:00:22;11.90;99.90
23813;DHT22;12087;45.190;5.688;2024-02-23T16:05:44;11.90;99.90
23813;DHT22;12087;45.190;5.688;2024-02-23T16:11:08;11.80;99.90
23813;DHT22;12087;45.190;5.688;2024-02-23T16:16:31;11.70;99.90
23813;DHT22;12087;45.190;5.688;2024-02-23T16:21:55;11.70;99.90
23813;DHT22;12087;45.190;5.688;2024-02-23T16:27:18;11.70;99.90
23813;DHT22;12087;45.190;5.688;2024-02-23T16:32:40;11.60;99.90
23813;DHT22;12087;45.190;5.688;2024-02-23T16:38:03;11.60;99.90
23813;DHT22;12087;45.190;5.688;2024-02-23T16:43:26;11.60;99.90
23813;DHT22;12087;45.190;5.688;2024-02-23T16:48:48;11.60;99.90
23813;DHT22;12087;45.190;5.688;2024-02-23T16:54:11;11.50;99.90
23813;DHT22;12087;45.190;5.688;2024-02-23T16:59:35;11.40;99.90
23813;DHT22;12087;45.190;5.688;2024-02-23T17:04:57;11.40;99.90
23813;DHT22;12087;45.190;5.688;2024-02-23T17:10:21;11.30;99.90
23813;DHT22;12087;45.190;5.688;2024-02-23T17:15:45;11.30;99.90
23813;DHT22;12087;45.190;5.688;2024-02-23T17:21:07;11.20;99.90
23813;DHT22;12087;45.190;5.688;2024-02-23T17:26:30;11.20;99.90
23813;DHT22;12087;45.190;5.688;2024-02-23T17:31:53;11.20;99.90
23813;DHT22;12087;45.190;5.688;2024-02-23T17:37:15;11.20;99.90
23813;DHT22;12087;45.190;5.688;2024-02-23T17:42:37;11.10;99.90
23813;DHT22;12087;45.190;5.688;2024-02-23T17:48:01;11.00;99.90
23813;DHT22;12087;45.190;5.688;2024-02-23T17:53:23;11.00;99.90
23813;DHT22;12087;45.190;5.688;2024-02-23T17:58:46;10.80;99.90
23813;DHT22;12087;45.190;5.688;2024-02-23T18:04:10;10.80;99.90
23813;DHT22;12087;45.190;5.688;2024-02-23T18:09:32;10.60;99.90
23813;DHT22;12087;45.190;5.688;2024-02-23T18:14:54;10.50;99.90
23813;DHT22;12087;45.190;5.688;2024-02-23T18:20:18;10.40;99.90
23813;DHT22;12087;45.190;5.688;2024-02-23T18:25:41;10.40;99.90
23813;DHT22;12087;45.190;5.688;2024-02-23T18:31:03;10.40;99.90
23813;DHT22;12087;45.190;5.688;2024-02-23T18:36:27;10.30;99.90
23813;DHT22;12087;45.190;5.688;2024-02-23T18:41:49;10.20;99.90
23813;DHT22;12087;45.190;5.688;2024-02-23T18:47:11;10.20;99.90
23813;DHT22;12087;45.190;5.688;2024-02-23T18:52:35;10.10;99.90
23813;DHT22;12087;45.190;5.688;2024-02-23T18:57:57;10.10;99.90
23813;DHT22;12087;45.190;5.688;2024-02-23T19:03:19;10.10;99.90
23813;DHT22;12087;45.190;5.688;2024-02-23T19:08:43;10.10;99.90
23813;DHT22;12087;45.190;5.688;2024-02-23T19:14:05;10.10;99.90
23813;DHT22;12087;45.190;5.688;2024-02-23T19:19:27;10.10;99.90
23813;DHT22;12087;45.190;5.688;2024-02-23T19:24:51;10.00;99.90
23813;DHT22;12087;45.190;5.688;2024-02-23T19:30:13;9.90;99.90
23813;DHT22;12087;45.190;5.688;2024-02-23T19:35:36;9.90;99.90
23813;DHT22;12087;45.190;5.688;2024-02-23T19:41:02;9.90;99.90
23813;DHT22;12087;45.190;5.688;2024-02-23T19:46:24;9.90;99.90
23813;DHT22;12087;45.190;5.688;2024-02-23T19:51:46;9.90;99.90
23813;DHT22;12087;45.190;5.688;2024-02-23T19:57:10;9.80;99.90
23813;DHT22;12087;45.190;5.688;2024-02-23T20:02:32;9.80;99.90
23813;DHT22;12087;45.190;5.688;2024-02-23T20:07:54;9.80;99.90
23813;DHT22;12087;45.190;5.688;2024-02-23T20:13:18;9.80;99.90
23813;DHT22;12087;45.190;5.688;2024-02-23T20:18:40;9.70;99.90
23813;DHT22;12087;45.190;5.688;2024-02-23T20:24:02;9.70;99.90
23813;DHT22;12087;45.190;5.688;2024-02-23T20:29:26;9.70;99.90
23813;DHT22;12087;45.190;5.688;2024-02-23T20:34:48;9.70;99.90
23813;DHT22;12087;45.190;5.688;2024-02-23T20:40:11;9.70;99.90
23813;DHT22;12087;45.190;5.688;2024-02-23T20:45:54;9.70;99.90
23813;DHT22;12087;45.190;5.688;2024-02-23T20:51:19;9.60;99.90
23813;DHT22;12087;45.190;5.688;2024-02-23T20:56:41;9.60;99.90
23813;DHT22;12087;45.190;5.688;2024-02-23T21:02:05;9.70;99.90
23813;DHT22;12087;45.190;5.688;2024-02-23T21:07:27;9.70;99.90
23813;DHT22;12087;45.190;5.688;2024-02-23T21:12:49;9.70;99.90
23813;DHT22;12087;45.190;5.688;2024-02-23T21:18:14;9.60;99.90
23813;DHT22;12087;45.190;5.688;2024-02-23T21:23:36;9.60;99.90
23813;DHT22;12087;45.190;5.688;2024-02-23T21:28:58;9.60;99.90
23813;DHT22;12087;45.190;5.688;2024-02-23T21:34:23;9.70;99.90
23813;DHT22;12087;45.190;5.688;2024-02-23T21:39:45;9.70;99.90
23813;DHT22;12087;45.190;5.688;2024-02-23T21:45:08;9.60;99.90
23813;DHT22;12087;45.190;5.688;2024-02-23T21:50:31;9.60;99.90
23813;DHT22;12087;45.190;5.688;2024-02-23T21:55:54;9.60;99.90
23813;DHT22;12087;45.190;5.688;2024-02-23T22:01:16;9.60;99.90
23813;DHT22;12087;45.190;5.688;2024-02-23T22:06:43;9.70;99.90
23813;DHT22;12087;45.190;5.688;2024-02-23T22:12:06;9.80;99.90
23813;DHT22;12087;45.190;5.688;2024-02-23T22:17:28;9.80;99.90
23813;DHT22;12087;45.190;5.688;2024-02-23T22:22:52;9.80;99.90
23813;DHT22;12087;45.190;5.688;2024-02-23T22:28:14;9.80;99.90
23813;DHT22;12087;45.190;5.688;2024-02-23T22:33:36;9.80;99.90
23813;DHT22;12087;45.190;5.688;2024-02-23T22:39:00;9.80;99.90
23813;DHT22;12087;45.190;5.688;2024-02-23T22:44:22;9.80;99.90
23813;DHT22;12087;45.190;5.688;2024-02-23T22:49:44;9.80;99.90
23813;DHT22;12087;45.190;5.688;2024-02-23T22:55:08;9.70;99.90
23813;DHT22;12087;45.190;5.688;2024-02-23T23:00:30;9.80;99.90
23813;DHT22;12087;45.190;5.688;2024-02-23T23:05:53;9.80;99.90
23813;DHT22;12087;45.190;5.688;2024-02-23T23:11:17;9.80;99.90
23813;DHT22;12087;45.190;5.688;2024-02-23T23:16:40;9.80;99.90
23813;DHT22;12087;45.190;5.688;2024-02-23T23:22:02;9.80;99.90
23813;DHT22;12087;45.190;5.688;2024-02-23T23:27:26;9.80;99.90
23813;DHT22;12087;45.190;5.688;2024-02-23T23:32:48;9.80;99.90
23813;DHT22;12087;45.190;5.688;2024-02-23T23:38:11;9.80;99.90
23813;DHT22;12087;45.190;5.688;2024-02-23T23:43:34;9.80;99.90
23813;DHT22;12087;45.190;5.688;2024-02-23T23:48:56;9.80;99.90
23813;DHT22;12087;45.190;5.688;2024-02-23T23:54:19;9.90;99.90
23813;DHT22;12087;45.190;5.688;2024-02-23T23:59:42;9.90;99.90
